Time;durP1;ratioP1;P1;durP2;ratioP2;P2;SDS_P1;SDS_P2;PMS_P1;PMS_P2;Temp;Humidity;BMP_temperature;BMP_pressure;BME280_temperature;BME280_humidity;BME280_pressure;Samples;Min_cycle;Max_cycle;Signal;HPM_P1;HPM_P2
2022/07/06 00:02:04;;;;;;;3.87;2.30;;;;;;;28.07;49.69;101342.82;1747895;81;21014;-51
2022/07/06 00:04:31;;;;;;;2.58;2.20;;;;;;;28.05;49.76;101339.91;1741813;81;20994;-49
2022/07/06 00:06:57;;;;;;;3.25;2.37;;;;;;;28.02;49.77;101346.88;1705594;83;21034;-51
2022/07/06 00:09:24;;;;;;;5.67;2.40;;;;;;;27.99;49.90;101336.42;1732067;81;21011;-52
2022/07/06 00:11:52;;;;;;;2.80;2.00;;;;;;;27.99;49.99;101335.94;1744995;82;21003;-51
2022/07/06 00:14:19;;;;;;;4.53;2.37;;;;;;;27.97;49.89;101335.70;1744522;81;21067;-51
2022/07/06 00:16:47;;;;;;;5.55;2.67;;;;;;;27.95;49.80;101340.30;1731861;81;20979;-51
2022/07/06 00:19:14;;;;;;;5.28;2.37;;;;;;;27.92;49.73;101338.77;1743601;81;20995;-50
2022/07/06 00:21:41;;;;;;;4.92;2.55;;;;;;;27.92;49.74;101339.25;1744448;81;21006;-49
2022/07/06 00:24:09;;;;;;;3.02;2.25;;;;;;;27.90;49.65;101332.67;1743760;81;21078;-49
2022/07/06 00:26:36;;;;;;;3.85;2.33;;;;;;;27.88;49.46;101329.79;1741617;81;21062;-50
2022/07/06 00:29:03;;;;;;;3.40;2.05;;;;;;;27.85;49.40;101332.70;1742573;81;21050;-49
2022/07/06 00:31:30;;;;;;;5.08;2.20;;;;;;;27.81;49.22;101327.27;1709570;83;22228;-49
2022/07/06 00:33:57;;;;;;;5.37;2.33;;;;;;;27.76;49.20;101324.14;1708902;83;21499;-51
2022/07/06 00:36:24;;;;;;;2.37;2.12;;;;;;;27.69;49.09;101321.13;1744051;81;20995;-50
2022/07/06 00:38:51;;;;;;;3.75;1.95;;;;;;;27.65;48.81;101320.17;1740606;81;20990;-49
2022/07/06 00:41:18;;;;;;;3.52;2.12;;;;;;;27.64;48.76;101326.48;1741361;81;21058;-50
2022/07/06 00:43:56;;;;;;;2.08;1.98;;;;;;;27.63;48.84;101330.16;1705856;82;21073;-48
2022/07/06 00:46:31;;;;;;;4.70;2.50;;;;;;;27.62;48.91;101335.13;1705622;83;20974;-50
2022/07/06 00:48:58;;;;;;;3.95;2.27;;;;;;;27.59;48.76;101336.25;1679838;84;21042;-50
2022/07/06 00:51:32;;;;;;;3.42;2.42;;;;;;;27.55;48.63;101328.61;1678595;85;21108;-51
2022/07/06 00:54:00;;;;;;;5.22;2.30;;;;;;;27.49;48.58;101329.13;1706283;82;20998;-50
2022/07/06 00:56:29;;;;;;;3.25;2.42;;;;;;;27.43;48.58;101328.30;1708475;82;21037;-50
2022/07/06 00:58:56;;;;;;;4.30;2.58;;;;;;;27.39;48.61;101330.35;1704205;83;21514;-49
2022/07/06 01:01:23;;;;;;;2.17;1.98;;;;;;;27.35;48.53;101321.75;1700571;82;21058;-52
2022/07/06 01:03:50;;;;;;;5.33;2.75;;;;;;;27.35;48.54;101328.44;1705344;82;21513;-49
2022/07/06 01:06:17;;;;;;;2.85;2.30;;;;;;;27.35;48.36;101328.44;1705944;82;21050;-49
2022/07/06 01:08:44;;;;;;;4.90;2.45;;;;;;;27.34;48.22;101321.41;1708451;82;21088;-51
2022/07/06 01:11:11;;;;;;;2.87;2.10;;;;;;;27.32;47.89;101316.64;1707115;82;21018;-49
2022/07/06 01:13:38;;;;;;;6.62;2.40;;;;;;;27.30;47.75;101321.27;1704822;83;21077;-51
2022/07/06 01:16:05;;;;;;;6.37;2.70;;;;;;;27.25;47.72;101319.45;1707510;82;21002;-49
2022/07/06 01:18:34;;;;;;;3.33;2.10;;;;;;;27.24;47.61;101320.41;1705314;82;21479;-49
2022/07/06 01:21:13;;;;;;;4.30;2.00;;;;;;;27.24;47.50;101319.06;1705144;82;21538;-50
2022/07/06 01:23:44;;;;;;;5.20;2.70;;;;;;;27.20;46.91;101324.30;1695752;84;21023;-52
2022/07/06 01:26:13;;;;;;;5.58;2.42;;;;;;;27.16;46.19;101322.86;1678915;84;21086;-50
2022/07/06 01:28:40;;;;;;;5.17;2.47;;;;;;;27.13;45.83;101321.80;1679460;84;21002;-51
2022/07/06 01:31:21;;;;;;;4.83;2.30;;;;;;;27.10;45.14;101320.69;1678728;84;21113;-52
2022/07/06 01:33:51;;;;;;;4.40;2.95;;;;;;;27.08;44.69;101321.30;1679237;84;21110;-52
2022/07/06 01:36:18;;;;;;;4.25;2.08;;;;;;;27.06;44.06;101321.92;1630855;86;21557;-50
2022/07/06 01:38:49;;;;;;;4.78;2.40;;;;;;;27.04;43.66;101320.34;1632056;86;21066;-51
2022/07/06 01:41:17;;;;;;;3.00;1.90;;;;;;;27.01;43.31;101328.14;1632196;86;21093;-52
2022/07/06 01:43:44;;;;;;;3.50;2.40;;;;;;;26.98;43.17;101329.70;1629685;86;21046;-49
2022/07/06 01:46:11;;;;;;;4.87;2.80;;;;;;;26.87;43.43;101321.73;1623516;86;21578;-49
2022/07/06 01:48:39;;;;;;;3.58;2.55;;;;;;;26.81;43.58;101326.20;1611706;88;21122;-53
2022/07/06 01:51:06;;;;;;;3.20;2.25;;;;;;;26.78;43.49;101327.80;1627889;87;21604;-49
2022/07/06 01:53:34;;;;;;;2.62;2.10;;;;;;;26.83;43.62;101324.26;1628277;87;21068;-52
2022/07/06 01:56:01;;;;;;;4.12;2.52;;;;;;;26.84;43.51;101321.97;1625883;87;21065;-55
2022/07/06 01:58:28;;;;;;;5.50;2.50;;;;;;;26.83;43.61;101316.25;1625343;87;21051;-50
2022/07/06 02:00:56;;;;;;;3.40;2.55;;;;;;;26.81;44.44;101318.19;1620048;87;21076;-48
2022/07/06 02:03:23;;;;;;;3.17;2.20;;;;;;;26.76;44.97;101313.73;1627977;86;21076;-50
2022/07/06 02:05:50;;;;;;;7.83;3.00;;;;;;;26.74;45.39;101317.01;1628035;87;21029;-50
2022/07/06 02:08:17;;;;;;;4.65;2.90;;;;;;;26.72;45.70;101314.95;1626475;87;21069;-49
2022/07/06 02:10:44;;;;;;;6.80;3.85;;;;;;;26.70;45.38;101315.52;1625600;87;21037;-50
2022/07/06 02:13:11;;;;;;;10.43;5.05;;;;;;;26.70;45.09;101316.86;1616439;87;21109;-52
2022/07/06 02:15:38;;;;;;;7.83;4.70;;;;;;;26.68;45.02;101314.80;1627909;87;21790;-51
2022/07/06 02:18:07;;;;;;;7.87;4.33;;;;;;;26.67;44.90;101311.75;1626210;87;21088;-49
2022/07/06 02:20:34;;;;;;;5.92;4.75;;;;;;;26.67;44.97;101311.75;1631347;87;21051;-49
2022/07/06 02:23:00;;;;;;;8.20;4.90;;;;;;;26.65;45.13;101313.69;1618113;88;21046;-50
2022/07/06 02:25:28;;;;;;;5.90;3.42;;;;;;;26.65;45.26;101312.36;1634660;87;21547;-53
2022/07/06 02:27:55;;;;;;;3.50;3.17;;;;;;;26.64;45.04;101314.68;1618762;88;21070;-49
2022/07/06 02:30:24;;;;;;;5.85;3.27;;;;;;;26.63;44.24;101312.97;1633191;86;21059;-49
2022/07/06 02:32:50;;;;;;;5.37;3.30;;;;;;;26.58;43.93;101309.83;1640817;85;21085;-49
2022/07/06 02:35:17;;;;;;;4.67;3.00;;;;;;;26.61;43.61;101313.58;1651221;85;21095;-49
2022/07/06 02:37:44;;;;;;;3.02;2.80;;;;;;;26.61;43.43;101314.91;1675185;85;21093;-49
2022/07/06 02:40:12;;;;;;;3.55;2.95;;;;;;;26.62;43.25;101316.62;1675074;85;21054;-49
2022/07/06 02:42:39;;;;;;;9.95;3.00;;;;;;;26.60;43.45;101313.23;1652828;85;21038;-51
2022/07/06 02:45:08;;;;;;;3.80;3.15;;;;;;;26.59;43.86;101310.18;1678100;85;21531;-49
2022/07/06 02:47:35;;;;;;;8.70;5.17;;;;;;;26.58;44.05;101315.17;1659902;84;21519;-49
2022/07/06 02:50:05;;;;;;;9.43;4.50;;;;;;;26.57;43.61;101313.45;1704199;82;21095;-51
2022/07/06 02:52:32;;;;;;;6.05;4.58;;;;;;;26.54;42.80;101312.38;1699715;82;21019;-49
2022/07/06 02:54:59;;;;;;;5.22;3.62;;;;;;;26.53;42.30;101305.33;1699979;84;21050;-52
2022/07/06 02:57:27;;;;;;;7.17;3.62;;;;;;;26.52;42.49;101300.98;1700839;82;21099;-50
2022/07/06 02:59:54;;;;;;;5.47;3.30;;;;;;;26.52;42.90;101303.65;1701075;82;21007;-49
2022/07/06 03:02:21;;;;;;;7.25;3.35;;;;;;;26.50;43.05;101297.08;1698827;82;21067;-49
2022/07/06 03:04:50;;;;;;;3.85;3.42;;;;;;;26.51;42.76;101303.27;1697903;82;21042;-51
2022/07/06 03:07:17;;;;;;;5.12;2.95;;;;;;;26.50;42.36;101296.25;1698094;82;21079;-49
2022/07/06 03:09:45;;;;;;;2.83;2.62;;;;;;;26.50;42.19;101298.92;1698040;82;21043;-56
2022/07/06 03:12:12;;;;;;;5.25;2.92;;;;;;;26.52;41.92;101294.30;1692995;83;21487;-53
2022/07/06 03:14:40;;;;;;;3.08;2.77;;;;;;;26.55;41.81;101298.05;1700873;82;21047;-50
2022/07/06 03:17:07;;;;;;;7.75;3.00;;;;;;;26.59;41.88;101306.17;1700722;82;21098;-51
2022/07/06 03:19:34;;;;;;;5.75;2.80;;;;;;;26.63;42.19;101302.29;1698454;82;21035;-51
2022/07/06 03:22:02;;;;;;;3.85;2.75;;;;;;;26.66;42.65;101299.87;1697771;82;21043;-51
2022/07/06 03:24:29;;;;;;;3.72;3.33;;;;;;;26.69;42.93;101306.31;1698103;82;21504;-50
2022/07/06 03:26:55;;;;;;;3.90;2.77;;;;;;;26.72;43.16;101302.94;1697888;82;21519;-53
2022/07/06 03:29:23;;;;;;;4.37;3.10;;;;;;;26.76;43.37;101309.72;1698192;82;21039;-51
2022/07/06 03:31:50;;;;;;;6.12;2.98;;;;;;;26.80;43.28;101312.51;1694615;82;21039;-50
2022/07/06 03:34:17;;;;;;;6.22;2.80;;;;;;;26.83;43.51;101312.24;1700807;82;21070;-52
2022/07/06 03:36:44;;;;;;;5.40;2.90;;;;;;;26.87;43.70;101308.38;1699392;82;21082;-50
2022/07/06 03:39:12;;;;;;;5.37;3.27;;;;;;;26.92;43.91;101306.17;1697571;84;21622;-52
2022/07/06 03:41:39;;;;;;;5.05;3.00;;;;;;;26.96;44.39;101302.28;1688362;82;21046;-52
2022/07/06 03:44:06;;;;;;;8.03;3.85;;;;;;;27.07;44.84;101304.08;1700873;82;21035;-52
2022/07/06 03:46:34;;;;;;;8.13;3.52;;;;;;;27.23;45.10;101307.18;1696574;84;21551;-50
2022/07/06 03:49:01;;;;;;;7.45;3.70;;;;;;;27.51;45.37;101312.47;1700103;83;21050;-53
2022/07/06 03:51:29;;;;;;;5.10;2.95;;;;;;;27.96;44.94;101309.95;1711415;83;21034;-51
2022/07/06 03:53:55;;;;;;;6.33;3.05;;;;;;;28.56;44.02;101307.34;1711244;83;21534;-50
2022/07/06 03:56:28;;;;;;;5.10;3.25;;;;;;;29.28;42.92;101304.44;1711632;83;20994;-50
2022/07/06 03:58:59;;;;;;;4.28;2.90;;;;;;;30.02;41.72;101302.37;1689759;83;21051;-53
2022/07/06 04:01:26;;;;;;;3.90;3.12;;;;;;;30.82;40.28;101313.88;1696169;83;21023;-50
2022/07/06 04:03:53;;;;;;;3.75;2.90;;;;;;;31.53;39.06;101312.99;1696271;83;21586;-51
2022/07/06 04:06:20;;;;;;;5.12;2.85;;;;;;;32.15;38.07;101311.17;1693842;83;21138;-51
2022/07/06 04:08:47;;;;;;;5.28;3.12;;;;;;;32.54;37.41;101307.04;1694706;83;21499;-52
2022/07/06 04:11:13;;;;;;;9.08;3.40;;;;;;;32.74;37.06;101311.16;1687745;84;21062;-52
2022/07/06 04:13:42;;;;;;;4.00;3.25;;;;;;;32.72;37.26;101310.48;1697098;83;21031;-52
2022/07/06 04:16:10;;;;;;;3.50;3.08;;;;;;;32.57;37.84;101316.13;1683175;83;21598;-50
2022/07/06 04:18:38;;;;;;;6.42;3.10;;;;;;;32.34;38.57;101314.47;1699980;83;21068;-53
2022/07/06 04:21:06;;;;;;;4.58;2.80;;;;;;;32.11;39.34;101313.84;1694252;84;21053;-49
2022/07/06 04:23:36;;;;;;;3.50;2.95;;;;;;;31.86;40.05;101316.30;1685416;83;21035;-50
2022/07/06 04:26:03;;;;;;;4.40;2.87;;;;;;;31.61;41.10;101313.09;1694285;83;21023;-51
2022/07/06 04:28:31;;;;;;;3.02;2.83;;;;;;;31.41;41.89;101318.27;1696469;83;21031;-52
2022/07/06 04:30:59;;;;;;;3.37;2.85;;;;;;;31.22;42.52;101318.41;1696341;83;21551;-52
2022/07/06 04:33:26;;;;;;;7.75;2.95;;;;;;;31.03;43.28;101314.49;1694520;83;21066;-49
2022/07/06 04:35:54;;;;;;;6.20;3.58;;;;;;;30.86;43.95;101313.46;1694332;83;21102;-52
2022/07/06 04:38:23;;;;;;;4.65;2.90;;;;;;;30.72;44.15;101310.39;1695351;84;21110;-49
2022/07/06 04:40:51;;;;;;;4.67;2.83;;;;;;;30.56;44.71;101304.33;1691648;84;21535;-49
2022/07/06 04:43:18;;;;;;;4.00;3.02;;;;;;;30.42;44.83;101300.28;1698098;83;21080;-52
2022/07/06 04:45:45;;;;;;;2.95;2.65;;;;;;;30.30;44.46;101300.12;1695233;83;21504;-49
2022/07/06 04:48:13;;;;;;;2.77;2.58;;;;;;;30.21;44.18;101300.12;1691677;83;21075;-51
2022/07/06 04:50:40;;;;;;;5.83;2.98;;;;;;;30.13;44.01;101307.55;1684918;83;21082;-50
2022/07/06 04:53:08;;;;;;;4.17;2.85;;;;;;;30.05;44.11;101307.91;1685386;83;21063;-51
2022/07/06 04:55:36;;;;;;;4.37;3.15;;;;;;;29.99;44.50;101311.18;1685087;83;21012;-53
2022/07/06 04:58:03;;;;;;;3.30;2.62;;;;;;;29.93;45.15;101311.27;1698668;82;21086;-50
2022/07/06 05:00:32;;;;;;;4.40;2.98;;;;;;;29.89;46.03;101309.87;1700955;82;21571;-49
2022/07/06 05:02:59;;;;;;;4.97;3.92;;;;;;;29.86;47.24;101304.80;1701055;82;21106;-50
2022/07/06 05:05:27;;;;;;;4.10;3.22;;;;;;;29.84;47.87;101312.16;1699419;82;21026;-50
2022/07/06 05:07:54;;;;;;;5.40;3.00;;;;;;;29.84;47.88;101313.50;1699169;83;21517;-53
2022/07/06 05:10:21;;;;;;;5.97;3.75;;;;;;;29.86;46.88;101308.83;1700007;84;21014;-52
2022/07/06 05:12:51;;;;;;;7.72;3.00;;;;;;;29.95;45.85;101306.61;1700688;82;21003;-50
2022/07/06 05:15:18;;;;;;;3.95;2.58;;;;;;;30.10;44.19;101309.20;1686901;82;21055;-51
2022/07/06 05:17:46;;;;;;;5.50;3.22;;;;;;;30.32;42.33;101310.70;1698781;82;21098;-52
2022/07/06 05:20:13;;;;;;;4.42;3.15;;;;;;;30.57;40.62;101312.73;1700006;84;21050;-51
2022/07/06 05:22:41;;;;;;;5.10;3.15;;;;;;;30.86;39.47;101313.95;1696901;84;21034;-53
2022/07/06 05:25:09;;;;;;;3.85;2.85;;;;;;;31.16;38.95;101306.92;1711069;82;21571;-51
2022/07/06 05:27:36;;;;;;;5.85;2.95;;;;;;;31.50;38.77;101307.94;1698228;82;21077;-50
2022/07/06 05:30:04;;;;;;;4.37;2.92;;;;;;;31.85;38.10;101305.70;1703504;84;21007;-53
2022/07/06 05:32:31;;;;;;;10.68;2.98;;;;;;;32.20;37.34;101306.98;1700858;84;21046;-54
2022/07/06 05:34:59;;;;;;;6.78;3.00;;;;;;;32.48;36.75;101303.64;1700947;82;21047;-52
2022/07/06 05:37:26;;;;;;;9.60;4.00;;;;;;;32.66;35.72;101307.94;1700243;82;21548;-49
2022/07/06 05:39:53;;;;;;;3.42;2.60;;;;;;;32.79;35.85;101305.61;1697679;82;21548;-53
2022/07/06 05:42:20;;;;;;;3.50;3.20;;;;;;;32.87;35.53;101302.94;1697944;82;21051;-54
2022/07/06 05:44:47;;;;;;;4.42;2.95;;;;;;;32.93;35.90;101297.41;1694499;82;21551;-50
2022/07/06 05:50:14;;;;;;;6.47;3.40;;;;;;;33.04;36.68;101297.13;1707789;82;21101;-52
2022/07/06 05:52:46;;;;;;;6.42;2.98;;;;;;;33.12;37.05;101296.31;1582335;89;21118;-53
2022/07/06 05:55:13;;;;;;;4.37;2.95;;;;;;;33.18;37.00;101299.16;1593202;89;21597;-52
2022/07/06 05:57:42;;;;;;;6.30;2.83;;;;;;;33.21;36.79;101298.00;1624461;88;21061;-50
2022/07/06 06:00:11;;;;;;;5.90;3.40;;;;;;;33.21;36.92;101293.45;1607977;88;21038;-53
2022/07/06 06:02:41;;;;;;;4.87;3.55;;;;;;;33.18;37.02;101296.47;1591249;90;21106;-52
2022/07/06 06:05:10;;;;;;;3.35;2.87;;;;;;;33.16;37.36;101293.09;1579401;90;21448;-51
2022/07/06 06:07:40;;;;;;;3.33;3.02;;;;;;;33.18;37.74;101291.08;1595203;89;21079;-52
2022/07/06 06:10:11;;;;;;;5.20;2.85;;;;;;;33.25;38.01;101301.55;1595997;88;21899;-51
2022/07/06 06:12:39;;;;;;;4.28;2.80;;;;;;;33.31;38.46;101299.53;1518835;93;21098;-52
2022/07/06 06:15:07;;;;;;;9.18;3.20;;;;;;;33.37;38.49;101297.52;1521271;94;21162;-52
2022/07/06 06:17:36;;;;;;;11.20;2.98;;;;;;;33.41;39.00;101296.66;1525919;93;21144;-51
2022/07/06 06:20:06;;;;;;;5.62;3.15;;;;;;;33.45;38.92;101300.21;1517305;94;21116;-53
2022/07/06 06:22:56;;;;;;;11.97;3.15;;;;;;;33.50;39.08;101292.50;1521242;94;21094;-53
2022/07/06 06:25:33;;;;;;;4.67;3.00;;;;;;;33.62;38.13;101288.45;1481325;97;21054;-53
2022/07/06 06:28:02;;;;;;;6.67;3.60;;;;;;;33.83;37.56;101289.28;1483040;97;21602;-54
2022/07/06 06:30:29;;;;;;;3.35;2.77;;;;;;;34.04;37.66;101295.53;1482832;97;21209;-52
2022/07/06 06:33:14;;;;;;;7.60;3.00;;;;;;;34.24;37.19;101296.82;1483016;95;21069;-50
2022/07/06 06:35:52;;;;;;;11.18;3.17;;;;;;;34.35;36.71;101297.81;1481589;97;21554;-52
2022/07/06 06:38:20;;;;;;;4.85;3.22;;;;;;;34.39;36.82;101296.45;1478317;95;21565;-51
2022/07/06 06:40:47;;;;;;;4.87;3.00;;;;;;;34.32;37.17;101292.24;1491115;96;21089;-50
2022/07/06 06:43:14;;;;;;;10.95;3.17;;;;;;;34.19;37.40;101294.63;1494677;96;21156;-50
2022/07/06 06:45:47;;;;;;;5.25;3.20;;;;;;;34.08;37.24;101299.56;1449054;97;21190;-50
2022/07/06 06:48:14;;;;;;;4.40;3.00;;;;;;;33.91;36.78;101289.27;1450459;97;21205;-50
2022/07/06 06:50:41;;;;;;;6.80;3.65;;;;;;;33.78;36.50;101285.42;1540166;92;21162;-50
2022/07/06 06:53:08;;;;;;;5.65;3.02;;;;;;;33.62;36.24;101276.31;1538609;92;21142;-51
2022/07/06 06:55:35;;;;;;;4.28;2.83;;;;;;;33.50;36.63;101274.97;1547199;92;21086;-50
2022/07/06 06:58:04;;;;;;;5.30;3.45;;;;;;;33.41;37.03;101273.23;1539690;92;21086;-52
2022/07/06 07:00:31;;;;;;;3.65;3.08;;;;;;;33.36;36.63;101286.41;1530214;92;21139;-53
2022/07/06 07:02:58;;;;;;;5.20;3.37;;;;;;;33.27;36.15;101282.00;1539254;92;21177;-53
2022/07/06 07:05:25;;;;;;;5.53;3.20;;;;;;;33.20;36.25;101276.09;1536181;92;21619;-48
2022/07/06 07:07:52;;;;;;;4.40;3.02;;;;;;;33.14;36.80;101270.84;1535308;92;21110;-49
2022/07/06 07:10:19;;;;;;;4.80;3.25;;;;;;;33.12;37.37;101274.21;1534049;92;21154;-55
2022/07/06 07:12:46;;;;;;;6.05;3.30;;;;;;;33.13;37.89;101274.56;1535132;92;21056;-53
2022/07/06 07:15:13;;;;;;;4.08;2.90;;;;;;;33.14;38.28;101273.54;1549600;89;21069;-52
2022/07/06 07:17:40;;;;;;;4.10;3.15;;;;;;;33.14;38.50;101266.80;1592135;89;21106;-49
2022/07/06 07:20:08;;;;;;;4.00;2.87;;;;;;;33.12;39.02;101267.47;1589998;89;21117;-51
2022/07/06 07:22:35;;;;;;;3.70;3.20;;;;;;;33.10;39.02;101272.19;1643573;85;21053;-49
2022/07/06 07:25:03;;;;;;;6.62;3.33;;;;;;;33.11;39.00;101274.39;1657605;85;21110;-49
2022/07/06 07:27:30;;;;;;;4.03;2.98;;;;;;;33.14;39.50;101278.94;1662930;85;21109;-51
2022/07/06 07:29:56;;;;;;;5.72;3.52;;;;;;;33.17;39.82;101267.83;1653962;85;21129;-51
2022/07/06 07:32:23;;;;;;;4.20;2.90;;;;;;;33.28;39.76;101272.05;1660199;85;21545;-51
2022/07/06 07:34:51;;;;;;;5.90;3.02;;;;;;;33.40;39.92;101273.41;1657093;85;21121;-52
2022/07/06 07:37:18;;;;;;;4.58;3.37;;;;;;;33.49;39.91;101275.97;1612077;87;21066;-51
2022/07/06 07:39:44;;;;;;;6.28;3.55;;;;;;;33.55;39.96;101271.23;1651391;85;21062;-53
2022/07/06 07:42:11;;;;;;;5.70;3.12;;;;;;;33.57;40.15;101269.21;1686552;82;21033;-50
2022/07/06 07:44:40;;;;;;;4.20;3.12;;;;;;;33.56;39.84;101268.05;1744454;82;21071;-54
2022/07/06 07:47:07;;;;;;;3.50;2.85;;;;;;;33.55;39.18;101271.23;1738023;82;21467;-49
2022/07/06 07:49:34;;;;;;;5.15;3.35;;;;;;;33.52;38.61;101281.04;1742751;80;21051;-52
2022/07/06 07:52:01;;;;;;;3.60;3.30;;;;;;;33.49;38.61;101271.91;1748811;80;21055;-50
2022/07/06 07:54:29;;;;;;;6.90;3.30;;;;;;;33.48;38.11;101273.41;1741526;81;21048;-52
2022/07/06 07:56:56;;;;;;;3.22;2.70;;;;;;;33.45;37.87;101270.53;1745133;80;20964;-54
2022/07/06 07:59:23;;;;;;;6.22;3.75;;;;;;;33.42;37.61;101269.54;1739338;80;21554;-51
2022/07/06 08:01:50;;;;;;;3.40;3.10;;;;;;;33.42;37.63;101264.14;1700081;84;21038;-50
2022/07/06 08:04:17;;;;;;;4.95;3.25;;;;;;;33.42;36.97;101266.84;1747615;80;21041;-50
2022/07/06 08:06:44;;;;;;;4.85;3.30;;;;;;;33.41;37.01;101267.84;1745404;80;21554;-51
2022/07/06 08:09:13;;;;;;;5.50;3.17;;;;;;;33.39;37.05;101267.16;1743048;80;21102;-52
2022/07/06 08:11:40;;;;;;;4.10;3.30;;;;;;;33.39;37.19;101264.47;1746672;80;20991;-50
2022/07/06 08:14:07;;;;;;;4.30;3.20;;;;;;;33.41;37.66;101264.29;1744847;80;21034;-51
2022/07/06 08:16:35;;;;;;;5.62;3.27;;;;;;;33.43;37.76;101263.11;1740170;80;21075;-49
2022/07/06 08:19:03;;;;;;;5.62;3.17;;;;;;;33.44;38.48;101267.52;1736774;80;21066;-53
2022/07/06 08:21:30;;;;;;;7.55;3.25;;;;;;;33.46;38.98;101265.49;1747569;80;21026;-51
2022/07/06 08:23:59;;;;;;;3.65;3.35;;;;;;;33.48;38.82;101266.17;1735108;80;21016;-52
2022/07/06 08:26:26;;;;;;;5.62;3.10;;;;;;;33.48;38.18;101274.27;1702465;84;20991;-52
2022/07/06 08:28:53;;;;;;;3.37;3.10;;;;;;;33.48;38.51;101272.91;1699955;84;21547;-51
2022/07/06 08:31:20;;;;;;;4.17;2.98;;;;;;;33.49;38.01;101268.40;1751431;80;21035;-52
2022/07/06 08:33:48;;;;;;;4.92;2.87;;;;;;;33.49;38.13;101265.17;1746771;80;21447;-53
2022/07/06 08:36:15;;;;;;;5.25;3.30;;;;;;;33.53;37.99;101268.39;1732275;80;21086;-51
2022/07/06 08:38:43;;;;;;;5.20;2.85;;;;;;;33.57;37.74;101267.86;1745513;80;21015;-55
2022/07/06 08:41:10;;;;;;;4.97;2.98;;;;;;;33.62;37.37;101268.71;1743005;80;21487;-56
2022/07/06 08:43:38;;;;;;;4.72;2.90;;;;;;;33.64;36.90;101262.14;1740681;80;21526;-51
2022/07/06 08:46:05;;;;;;;3.15;2.85;;;;;;;33.69;36.86;101268.38;1745179;80;21043;-52
2022/07/06 08:48:35;;;;;;;3.25;2.90;;;;;;;33.76;37.09;101272.59;1747301;80;21483;-49
2022/07/06 08:51:02;;;;;;;3.37;3.08;;;;;;;33.83;36.97;101269.53;1740519;80;21116;-50
2022/07/06 08:53:29;;;;;;;3.02;2.72;;;;;;;33.90;36.62;101265.15;1757050;80;21031;-50
2022/07/06 08:55:56;;;;;;;4.92;3.30;;;;;;;33.98;36.57;101265.13;1754736;80;21073;-50
2022/07/06 08:58:27;;;;;;;3.22;2.92;;;;;;;34.05;36.32;101270.19;1756333;80;21054;-52
2022/07/06 09:00:56;;;;;;;3.80;3.17;;;;;;;34.12;36.21;101268.50;1732922;80;20994;-51
2022/07/06 09:03:23;;;;;;;5.90;3.10;;;;;;;34.15;36.63;101270.34;1650885;85;21051;-52
2022/07/06 09:05:51;;;;;;;5.97;3.10;;;;;;;34.18;36.27;101267.80;1619705;86;21703;-53
2022/07/06 09:08:18;;;;;;;5.92;3.55;;;;;;;34.19;36.43;101268.97;1665583;85;20980;-53
2022/07/06 09:10:47;;;;;;;4.00;3.62;;;;;;;34.20;36.54;101273.87;1627388;87;21624;-49
2022/07/06 09:13:14;;;;;;;5.28;3.30;;;;;;;34.19;36.82;101268.97;1626927;87;21023;-51
2022/07/06 09:15:42;;;;;;;3.60;3.30;;;;;;;34.20;37.22;101268.47;1625397;87;21054;-53
2022/07/06 09:18:09;;;;;;;3.40;3.10;;;;;;;34.20;37.37;101267.97;1639121;86;21102;-52
2022/07/06 09:20:36;;;;;;;4.15;3.20;;;;;;;34.21;37.69;101268.29;1619280;87;21126;-50
2022/07/06 09:23:06;;;;;;;4.03;3.30;;;;;;;34.22;37.29;101261.03;1622632;87;21051;-51
2022/07/06 09:25:34;;;;;;;5.62;3.62;;;;;;;34.20;37.48;101257.66;1659529;85;21055;-51
2022/07/06 09:28:01;;;;;;;4.85;3.52;;;;;;;34.20;37.36;101253.61;1628852;87;21066;-50
2022/07/06 09:30:29;;;;;;;4.90;3.22;;;;;;;34.19;37.43;101258.70;1659255;85;21095;-51
2022/07/06 09:32:57;;;;;;;5.37;3.47;;;;;;;34.19;37.46;101254.65;1627047;87;21023;-53
2022/07/06 09:35:27;;;;;;;5.37;4.87;;;;;;;34.19;37.53;101250.06;1626008;87;21038;-50
2022/07/06 09:38:12;;;;;;;4.50;3.67;;;;;;;34.19;37.80;101252.77;1662273;85;21045;-51
2022/07/06 09:40:44;;;;;;;3.25;2.92;;;;;;;34.21;38.05;101249.91;1622455;88;21058;-52
2022/07/06 09:43:19;;;;;;;4.72;3.27;;;;;;;34.24;38.21;101253.59;1617034;88;21010;-54
2022/07/06 09:45:54;;;;;;;6.12;3.52;;;;;;;34.27;38.64;101250.56;1613945;88;21610;-49
2022/07/06 09:48:27;;;;;;;3.75;3.20;;;;;;;34.32;38.96;101251.72;1621384;88;21061;-53
2022/07/06 09:51:03;;;;;;;3.67;3.37;;;;;;;34.37;39.29;101251.20;1616302;88;21105;-52
2022/07/06 09:53:30;;;;;;;4.10;3.00;;;;;;;34.43;39.44;101251.84;1619875;87;21063;-53
2022/07/06 09:56:01;;;;;;;5.17;3.37;;;;;;;34.49;39.95;101260.63;1589473;89;20991;-51
2022/07/06 09:58:29;;;;;;;4.80;2.95;;;;;;;34.54;40.28;101260.93;1581922;89;21116;-51
2022/07/06 10:00:56;;;;;;;3.87;3.40;;;;;;;34.60;40.50;101261.61;1693111;82;21392;-49
2022/07/06 10:03:24;;;;;;;5.65;3.52;;;;;;;34.66;40.55;101258.70;1705706;83;21098;-50
2022/07/06 10:05:50;;;;;;;5.30;3.25;;;;;;;34.67;40.52;101259.86;1681298;82;20943;-53
2022/07/06 10:08:18;;;;;;;8.30;4.17;;;;;;;34.68;40.46;101256.16;1703450;82;21543;-51
2022/07/06 10:10:48;;;;;;;4.85;3.58;;;;;;;34.69;40.62;101257.82;1709117;82;21003;-49
2022/07/06 10:13:15;;;;;;;5.70;3.05;;;;;;;34.68;40.64;101253.45;1710638;82;21615;-50
2022/07/06 10:15:43;;;;;;;7.12;3.15;;;;;;;34.66;40.79;101254.14;1671922;83;21566;-53
2022/07/06 10:18:10;;;;;;;4.50;3.52;;;;;;;34.66;40.64;101251.44;1702968;84;21038;-52
2022/07/06 10:20:38;;;;;;;5.30;3.42;;;;;;;34.64;40.76;101250.77;1699854;82;21059;-52
2022/07/06 10:23:07;;;;;;;3.75;3.30;;;;;;;34.62;40.82;101243.34;1704685;83;21498;-50
2022/07/06 10:25:35;;;;;;;3.87;3.33;;;;;;;34.62;40.83;101240.65;1699710;82;21027;-52
2022/07/06 10:28:10;;;;;;;5.47;3.35;;;;;;;34.59;41.17;101238.28;1708195;83;20995;-53
2022/07/06 10:30:32;;;;;;;4.05;3.25;;;;;;;34.58;41.31;101238.47;1698795;83;21015;-53
2022/07/06 10:33:00;;;;;;;5.62;3.42;;;;;;;34.54;41.33;101240.66;1660224;82;21042;-50
2022/07/06 10:35:27;;;;;;;3.42;3.12;;;;;;;34.51;41.56;101241.03;1708029;83;21592;-53
2022/07/06 10:38:07;;;;;;;3.65;3.17;;;;;;;34.48;41.94;101241.33;1733165;80;21542;-52
2022/07/06 10:43:34;;;;;;;3.40;3.10;;;;;;;34.44;42.38;101234.09;1667989;85;21090;-50
2022/07/06 10:46:14;;;;;;;5.87;3.10;;;;;;;34.41;42.72;101234.97;1663423;85;21985;-50
2022/07/06 10:48:44;;;;;;;3.75;3.45;;;;;;;34.39;42.78;101235.15;1561866;92;21117;-50
2022/07/06 10:51:12;;;;;;;12.35;3.50;;;;;;;34.37;42.95;101233.13;1534750;92;21142;-56
2022/07/06 10:53:40;;;;;;;5.15;3.20;;;;;;;34.35;43.37;101232.47;1532064;93;21046;-50
2022/07/06 10:56:09;;;;;;;6.33;2.90;;;;;;;34.36;43.41;101230.08;1530983;93;21102;-50
2022/07/06 10:58:50;;;;;;;3.27;2.95;;;;;;;34.39;43.34;101232.45;1527260;93;21075;-51
2022/07/06 11:01:17;;;;;;;4.40;2.80;;;;;;;34.44;43.27;101233.25;1524417;93;21086;-50
2022/07/06 11:04:03;;;;;;;6.90;2.80;;;;;;;34.48;43.22;101229.17;1525701;92;21578;-50
2022/07/06 11:06:38;;;;;;;4.78;2.80;;;;;;;34.52;43.08;101229.18;1506603;94;21585;-50
2022/07/06 11:09:09;;;;;;;4.72;3.20;;;;;;;34.56;43.03;101227.81;1504484;94;21089;-50
2022/07/06 11:11:41;;;;;;;4.35;2.92;;;;;;;34.58;42.98;101220.40;1500955;94;21109;-55
2022/07/06 11:14:17;;;;;;;3.87;3.35;;;;;;;34.59;42.84;101223.42;1507793;94;21155;-51
2022/07/06 11:16:57;;;;;;;7.28;3.50;;;;;;;34.59;42.84;101219.36;1508345;94;21104;-50
2022/07/06 11:19:25;;;;;;;4.35;3.00;;;;;;;34.62;42.73;101224.43;1506403;94;21656;-51
2022/07/06 11:21:57;;;;;;;3.62;3.30;;;;;;;34.59;42.72;101219.36;1507050;94;21217;-55
2022/07/06 11:24:28;;;;;;;;;;;;;;;34.58;42.72;101217.70;1507497;94;21100;-51
2022/07/06 11:26:56;;;;;;;3.10;2.90;;;;;;;34.57;42.61;101208.39;1399860;102;20132;-52
2022/07/06 11:29:24;;;;;;;5.80;3.33;;;;;;;34.53;42.68;101213.81;1408569;101;21140;-51
2022/07/06 11:32:00;;;;;;;4.22;2.98;;;;;;;34.49;42.85;101216.04;1405109;101;21097;-50
2022/07/06 11:34:33;;;;;;;3.12;2.83;;;;;;;34.44;43.00;101207.58;1405448;100;21794;-50
2022/07/06 11:37:05;;;;;;;4.33;2.90;;;;;;;34.41;43.01;101208.80;1407977;101;21138;-49